createdAt,value
2019-04-03T00:00:46.597Z,64.43
2019-04-03T00:01:46.830Z,64.43
2019-04-03T00:02:46.909Z,64.43
2019-04-03T00:03:46.818Z,64.53
2019-04-03T00:04:46.810Z,64.53
2019-04-03T00:05:46.807Z,64.62
2019-04-03T00:06:46.626Z,64.62
2019-04-03T00:07:46.792Z,64.72
2019-04-03T00:08:46.780Z,64.78
2019-04-03T00:09:46.928Z,64.97
2019-04-03T00:10:46.776Z,65.07
2019-04-03T00:11:46.508Z,65.26
2019-04-03T00:12:46.752Z,65.55
2019-04-03T00:13:46.750Z,65.73
2019-04-03T00:14:46.736Z,65.83
2019-04-03T00:15:47.564Z,65.92
2019-04-03T00:16:48.395Z,66.02
2019-04-03T00:17:48.442Z,66.02
2019-04-03T00:18:49.376Z,66.21
2019-04-03T00:19:49.817Z,66.31
2019-04-03T00:20:48.631Z,66.5
2019-04-03T00:21:46.784Z,66.69
2019-04-03T00:22:49.726Z,66.69
2019-04-03T00:23:46.676Z,66.69
2019-04-03T00:24:46.822Z,66.78
2019-04-03T00:25:46.741Z,66.88
2019-04-03T00:26:46.683Z,66.97
2019-04-03T00:27:46.766Z,67.07
2019-04-03T00:28:46.703Z,67.16
2019-04-03T00:29:46.852Z,67.26
2019-04-03T00:30:46.704Z,67.35
2019-04-03T00:31:46.368Z,67.45
2019-04-03T00:32:46.363Z,67.55
2019-04-03T00:33:46.605Z,67.55
2019-04-03T00:34:46.600Z,67.55
2019-04-03T00:35:46.601Z,67.55
2019-04-03T00:36:46.757Z,67.64
2019-04-03T00:37:46.585Z,67.64
2019-04-03T00:38:46.638Z,67.64
2019-04-03T00:39:46.645Z,67.64
2019-04-03T00:40:46.559Z,67.64
2019-04-03T00:41:46.303Z,67.74
2019-04-03T00:42:46.547Z,67.83
2019-04-03T00:43:46.541Z,67.83
2019-04-03T00:44:46.534Z,67.83
2019-04-03T00:45:46.527Z,67.83
2019-04-03T00:46:46.264Z,67.74
2019-04-03T00:47:46.638Z,67.74
2019-04-03T00:48:46.256Z,67.74
2019-04-03T00:49:46.501Z,67.64
2019-04-03T00:50:46.540Z,67.64
2019-04-03T00:51:46.232Z,67.55
2019-04-03T00:52:46.473Z,67.55
2019-04-03T00:53:46.466Z,67.55
2019-04-03T00:54:46.493Z,67.55
2019-04-03T00:55:46.458Z,67.64
2019-04-03T00:56:46.447Z,67.64
2019-04-03T00:57:46.440Z,67.74
2019-04-03T00:58:46.571Z,67.83
2019-04-03T00:59:46.431Z,67.93
2019-04-03T01:00:46.567Z,68.02
2019-04-03T01:01:46.410Z,67.93
2019-04-03T01:02:46.405Z,67.93
2019-04-03T01:03:46.399Z,67.83
2019-04-03T01:04:46.463Z,67.93
2019-04-03T01:05:46.383Z,68.12
2019-04-03T01:06:46.416Z,68.3
2019-04-03T01:07:46.467Z,68.46
2019-04-03T01:08:46.365Z,68.56
2019-04-03T01:09:46.356Z,68.75
2019-04-03T01:10:46.354Z,68.94
2019-04-03T01:11:46.341Z,69.13
2019-04-03T01:12:46.334Z,69.23
2019-04-03T01:13:46.328Z,69.23
2019-04-03T01:14:46.329Z,69.23
2019-04-03T01:15:46.314Z,69.23
2019-04-03T01:16:46.308Z,69.23
2019-04-03T01:17:46.299Z,69.23
2019-04-03T01:18:46.043Z,69.32
2019-04-03T01:19:46.286Z,69.32
2019-04-03T01:20:46.279Z,69.42
2019-04-03T01:21:46.322Z,69.6
2019-04-03T01:22:46.265Z,69.6
2019-04-03T01:23:46.261Z,69.51
2019-04-03T01:24:46.385Z,69.51
2019-04-03T01:25:46.252Z,69.51
2019-04-03T01:26:46.252Z,69.51
2019-04-03T01:27:46.370Z,69.51
2019-04-03T01:28:46.221Z,69.42
2019-04-03T01:29:46.216Z,69.51
2019-04-03T01:30:47.049Z,69.6
2019-04-03T01:31:47.530Z,69.7
2019-04-03T01:32:48.838Z,69.89
2019-04-03T01:33:48.793Z,70.08
2019-04-03T01:34:47.619Z,70.27
2019-04-03T01:35:47.380Z,70.47
2019-04-03T01:36:46.518Z,70.65
2019-04-03T01:37:46.161Z,70.84
2019-04-03T01:38:46.316Z,70.94
2019-04-03T01:39:46.145Z,71.03
2019-04-03T01:40:46.237Z,71.03
2019-04-03T01:41:46.131Z,71.03
2019-04-03T01:42:46.137Z,70.94
2019-04-03T01:43:46.116Z,71.03
2019-04-03T01:44:46.229Z,71.03
2019-04-03T01:45:46.103Z,71.22
2019-04-03T01:46:46.096Z,71.22
2019-04-03T01:47:46.089Z,71.22
2019-04-03T01:48:46.082Z,71.32
2019-04-03T01:49:46.171Z,71.42
2019-04-03T01:50:46.074Z,71.32
2019-04-03T01:51:46.083Z,71.32
2019-04-03T01:52:46.051Z,71.32
2019-04-03T01:53:46.052Z,71.32
2019-04-03T01:54:46.038Z,71.22
2019-04-03T01:55:46.143Z,71.22
2019-04-03T01:56:46.025Z,71.22
2019-04-03T01:57:46.254Z,71.13
2019-04-03T01:58:45.761Z,71.13
2019-04-03T01:59:46.104Z,71.03
2019-04-03T02:00:45.995Z,71.13
2019-04-03T02:01:45.992Z,71.13
2019-04-03T02:02:45.982Z,71.22
2019-04-03T02:03:45.979Z,71.32
2019-04-03T02:04:45.973Z,71.32
2019-04-03T02:05:46.551Z,71.22
2019-04-03T02:06:46.702Z,71.13
2019-04-03T02:07:47.404Z,71.13
2019-04-03T02:08:47.750Z,71.03
2019-04-03T02:09:48.809Z,71.03
2019-04-03T02:10:48.133Z,70.94
2019-04-03T02:11:45.931Z,70.94
2019-04-03T02:12:45.912Z,70.94
2019-04-03T02:13:46.038Z,71.03
2019-04-03T02:14:45.896Z,71.03
2019-04-03T02:15:45.888Z,71.03
2019-04-03T02:16:46.069Z,71.03
2019-04-03T02:17:45.877Z,71.03
2019-04-03T02:18:45.868Z,71.03
2019-04-03T02:19:46.035Z,70.94
2019-04-03T02:20:45.854Z,70.94
2019-04-03T02:21:45.887Z,70.94
2019-04-03T02:22:45.841Z,70.84
2019-04-03T02:23:45.936Z,70.84
2019-04-03T02:24:45.827Z,70.94
2019-04-03T02:25:45.880Z,70.94
2019-04-03T02:26:45.921Z,70.94
2019-04-03T02:27:45.892Z,70.94
2019-04-03T02:28:45.804Z,71
2019-04-03T02:29:45.897Z,71.09
2019-04-03T02:30:48.986Z,71.19
2019-04-03T02:31:45.799Z,71.28
2019-04-03T02:32:46.083Z,71.47
2019-04-03T02:33:45.774Z,71.57
2019-04-03T02:34:45.758Z,71.76
2019-04-03T02:35:45.748Z,71.76
2019-04-03T02:36:47.385Z,71.86
2019-04-03T02:37:48.200Z,71.95
2019-04-03T02:38:45.736Z,72.05
2019-04-03T02:39:45.793Z,72.24
2019-04-03T02:40:45.725Z,72.62
2019-04-03T02:41:45.708Z,72.9
2019-04-03T02:42:45.774Z,73.1
2019-04-03T02:43:49.089Z,73.15
2019-04-03T02:44:46.121Z,73.15
2019-04-03T02:45:45.702Z,73.34
2019-04-03T02:46:45.725Z,73.53
2019-04-03T02:47:45.683Z,73.63
2019-04-03T02:48:45.738Z,73.72
2019-04-03T02:49:46.376Z,73.82
2019-04-03T02:50:49.612Z,73.82
2019-04-03T02:51:45.639Z,73.82
2019-04-03T02:52:45.630Z,73.91
2019-04-03T02:53:45.645Z,74.01
2019-04-03T02:54:45.622Z,74.1
2019-04-03T02:55:45.618Z,74.29
2019-04-03T02:56:48.248Z,74.29
2019-04-03T02:57:48.331Z,74.39
2019-04-03T02:58:45.859Z,74.48
2019-04-03T02:59:45.579Z,74.48
2019-04-03T03:00:45.712Z,74.48
2019-04-03T03:01:45.586Z,74.48
2019-04-03T03:02:47.925Z,74.58
2019-04-03T03:03:48.262Z,74.67
2019-04-03T03:04:45.547Z,74.77
2019-04-03T03:05:45.540Z,74.77
2019-04-03T03:06:45.866Z,74.77
2019-04-03T03:07:45.529Z,74.77
2019-04-03T03:08:45.552Z,74.77
2019-04-03T03:09:48.536Z,74.77
2019-04-03T03:10:45.557Z,74.87
2019-04-03T03:11:45.509Z,74.87
2019-04-03T03:12:45.491Z,74.87
2019-04-03T03:13:45.661Z,74.96
2019-04-03T03:14:45.485Z,75.05
2019-04-03T03:15:47.293Z,75.05
2019-04-03T03:16:49.166Z,75.05
2019-04-03T03:17:45.474Z,75.15
2019-04-03T03:18:45.853Z,75.15
2019-04-03T03:19:45.450Z,75.15
2019-04-03T03:20:45.533Z,75.24
2019-04-03T03:21:47.843Z,75.34
2019-04-03T03:22:47.651Z,75.34
2019-04-03T03:23:45.414Z,75.53
2019-04-03T03:24:45.436Z,75.62
2019-04-03T03:25:45.584Z,75.72
2019-04-03T03:26:45.387Z,75.72
2019-04-03T03:27:45.742Z,75.72
2019-04-03T03:28:48.806Z,75.81
2019-04-03T03:29:45.407Z,75.81
2019-04-03T03:31:01.913Z,75.91
2019-04-03T03:32:16.854Z,76.01
2019-04-03T03:32:46.042Z,76.01
2019-04-03T03:33:46.357Z,76.01
2019-04-03T03:35:09.074Z,75.91
2019-04-03T03:35:52.699Z,75.91
2019-04-03T03:36:50.763Z,75.91
2019-04-03T03:37:49.573Z,75.91
2019-04-03T03:38:49.975Z,75.91
2019-04-03T03:39:49.575Z,75.81
2019-04-03T03:40:51.584Z,75.72
2019-04-03T03:41:49.566Z,75.72
2019-04-03T03:42:49.548Z,75.72
2019-04-03T03:43:49.542Z,75.72
2019-04-03T03:44:49.899Z,75.91
2019-04-03T03:45:53.247Z,76.16
2019-04-03T03:46:49.602Z,76.35
2019-04-03T03:47:49.511Z,76.54
2019-04-03T03:48:49.268Z,76.82
2019-04-03T03:49:52.428Z,77.2
2019-04-03T03:50:49.482Z,77.49
2019-04-03T03:51:49.479Z,77.68
2019-04-03T03:52:49.790Z,77.77
2019-04-03T03:53:49.787Z,77.77
2019-04-03T03:54:52.660Z,77.87
2019-04-03T03:55:49.447Z,78.06
2019-04-03T03:56:49.591Z,78.25
2019-04-03T03:57:49.653Z,78.44
2019-04-03T03:58:49.748Z,78.53
2019-04-03T03:59:52.854Z,78.53
2019-04-03T04:00:57.736Z,78.53
2019-04-03T04:01:49.663Z,78.53
2019-04-03T04:02:49.749Z,78.53
2019-04-03T04:03:49.388Z,78.44
2019-04-03T04:04:51.080Z,78.44
2019-04-03T04:05:49.139Z,78.44
2019-04-03T04:06:49.763Z,78.53
2019-04-03T04:07:49.460Z,78.63
2019-04-03T04:08:49.370Z,78.63
2019-04-03T04:09:52.856Z,78.72
2019-04-03T04:10:49.367Z,78.82
2019-04-03T04:11:49.333Z,78.91
2019-04-03T04:12:49.994Z,78.91
2019-04-03T04:13:51.534Z,78.88
2019-04-03T04:14:49.309Z,78.88
2019-04-03T04:15:49.422Z,78.88
2019-04-03T04:16:49.312Z,78.97
2019-04-03T04:17:53.559Z,79.06
2019-04-03T04:18:49.290Z,79.16
2019-04-03T04:19:49.466Z,79.25
2019-04-03T04:20:49.426Z,79.25
2019-04-03T04:21:49.585Z,79.35
2019-04-03T04:22:53.364Z,79.44
2019-04-03T04:23:49.253Z,79.63
2019-04-03T04:24:49.416Z,79.63
2019-04-03T04:25:49.233Z,79.73
2019-04-03T04:26:52.680Z,79.83
2019-04-03T04:27:49.219Z,79.92
2019-04-03T04:28:49.211Z,80.02
2019-04-03T04:29:49.199Z,80.21
2019-04-03T04:30:49.490Z,80.4
2019-04-03T04:31:49.266Z,80.4
2019-04-03T04:32:49.387Z,80.49
2019-04-03T04:33:50.654Z,80.49
2019-04-03T04:34:52.172Z,80.58
2019-04-03T04:35:51.295Z,80.77
2019-04-03T04:36:49.146Z,80.87
2019-04-03T04:37:49.140Z,80.87
2019-04-03T04:38:49.134Z,80.77
2019-04-03T04:39:49.135Z,80.77
2019-04-03T04:40:49.507Z,80.77
2019-04-03T04:41:49.334Z,80.77
2019-04-03T04:42:49.110Z,80.68
2019-04-03T04:43:49.102Z,80.68
2019-04-03T04:44:49.093Z,80.87
2019-04-03T04:45:49.111Z,80.96
2019-04-03T04:46:49.168Z,81.16
2019-04-03T04:47:49.281Z,81.16
2019-04-03T04:48:49.594Z,81.25
2019-04-03T04:49:49.166Z,81.35
2019-04-03T04:50:49.045Z,81.35
2019-04-03T04:51:49.240Z,81.44
2019-04-03T04:52:49.120Z,81.44
2019-04-03T04:53:49.027Z,81.35
2019-04-03T04:54:49.019Z,81.35
2019-04-03T04:55:48.757Z,81.35
2019-04-03T04:56:49.012Z,81.35
2019-04-03T04:57:48.992Z,81.44
2019-04-03T04:58:48.985Z,81.54
2019-04-03T04:59:48.978Z,81.54
2019-04-03T05:00:52.979Z,81.59
2019-04-03T05:01:51.149Z,81.68
2019-04-03T05:02:51.104Z,81.78
2019-04-03T05:03:48.951Z,81.87
2019-04-03T05:04:49.041Z,81.97
2019-04-03T05:05:49.260Z,81.97
2019-04-03T05:06:48.924Z,82.07
2019-04-03T05:07:48.917Z,82.07
2019-04-03T05:08:49.249Z,82.07
2019-04-03T05:09:49.056Z,82.07
2019-04-03T05:10:51.439Z,81.87
2019-04-03T05:11:48.890Z,81.87
2019-04-03T05:12:48.879Z,81.78
2019-04-03T05:13:49.626Z,81.68
2019-04-03T05:14:51.084Z,81.59
2019-04-03T05:15:48.860Z,81.49
2019-04-03T05:16:49.069Z,81.59
2019-04-03T05:17:50.482Z,81.68
2019-04-03T05:18:48.835Z,81.78
2019-04-03T05:19:50.979Z,81.78
2019-04-03T05:20:48.798Z,81.78
2019-04-03T05:21:48.850Z,81.78
2019-04-03T05:22:48.809Z,81.68
2019-04-03T05:23:48.812Z,81.59
2019-04-03T05:24:48.793Z,81.59
2019-04-03T05:25:48.863Z,81.78
2019-04-03T05:26:48.780Z,81.78
2019-04-03T05:27:48.772Z,81.68
2019-04-03T05:28:59.464Z,81.49
2019-04-03T05:29:48.765Z,81.4
2019-04-03T05:30:48.785Z,81.3
2019-04-03T05:31:48.742Z,81.4
2019-04-03T05:32:48.830Z,81.35
2019-04-03T05:33:48.869Z,81.35
2019-04-03T05:34:48.721Z,81.25
2019-04-03T05:35:49.066Z,81.35
2019-04-03T05:36:50.780Z,81.35
2019-04-03T05:37:48.940Z,81.44
2019-04-03T05:38:48.695Z,81.35
2019-04-03T05:39:48.782Z,81.35
2019-04-03T05:40:48.675Z,81.25
2019-04-03T05:41:48.668Z,81.16
2019-04-03T05:42:48.662Z,81.16
2019-04-03T05:43:48.654Z,81.06
2019-04-03T05:44:48.651Z,80.87
2019-04-03T05:45:48.815Z,80.77
2019-04-03T05:46:48.785Z,80.49
2019-04-03T05:47:48.830Z,80.11
2019-04-03T05:48:50.620Z,80.11
2019-04-03T05:49:51.182Z,80.15
2019-04-03T05:50:48.609Z,80.15
2019-04-03T05:51:48.595Z,80.05
2019-04-03T05:52:48.594Z,79.96
2019-04-03T05:53:48.583Z,79.68
2019-04-03T05:54:48.766Z,79.49
2019-04-03T05:55:48.574Z,79.2
2019-04-03T05:56:51.312Z,78.91
2019-04-03T05:57:48.874Z,78.63
2019-04-03T05:59:00.984Z,78.34
2019-04-03T06:00:02.490Z,78.25
2019-04-03T06:00:48.636Z,78.16
2019-04-03T06:01:49.633Z,78.06
2019-04-03T06:02:48.656Z,77.77
2019-04-03T06:03:48.485Z,77.49
2019-04-03T06:04:48.621Z,77.39
2019-04-03T06:05:48.651Z,77.39
2019-04-03T06:06:49.677Z,77.49
2019-04-03T06:07:51.210Z,77.39
2019-04-03T06:08:50.613Z,77.39
2019-04-03T06:09:48.466Z,77.49
2019-04-03T06:10:48.658Z,77.49
2019-04-03T06:11:48.502Z,77.49
2019-04-03T06:12:49.327Z,77.58
2019-04-03T06:13:50.942Z,77.58
2019-04-03T06:14:50.177Z,77.58
2019-04-03T06:15:48.513Z,77.68
2019-04-03T06:16:48.484Z,77.77
2019-04-03T06:17:50.227Z,77.87
2019-04-03T06:18:50.018Z,77.87
2019-04-03T06:19:48.389Z,77.87
2019-04-03T06:20:48.404Z,77.97
2019-04-03T06:21:49.148Z,77.97
2019-04-03T06:22:49.824Z,77.87
2019-04-03T06:23:48.564Z,77.87
2019-04-03T06:24:48.359Z,77.77
2019-04-03T06:25:48.346Z,77.68
2019-04-03T06:26:48.344Z,77.58
2019-04-03T06:27:48.873Z,77.68
2019-04-03T06:28:50.105Z,77.68
2019-04-03T06:29:48.619Z,77.72
2019-04-03T06:30:48.425Z,77.62
2019-04-03T06:31:48.298Z,77.34
2019-04-03T06:32:48.042Z,76.96
2019-04-03T06:33:50.972Z,76.67
2019-04-03T06:34:48.277Z,76.29
2019-04-03T06:35:48.766Z,75.95
2019-04-03T06:36:50.690Z,75.47
2019-04-03T06:37:48.353Z,74.99
2019-04-03T06:38:48.250Z,74.62
2019-04-03T06:39:48.241Z,74.52
2019-04-03T06:40:48.593Z,74.33
2019-04-03T06:41:48.226Z,74.24
2019-04-03T06:42:48.222Z,74.04
2019-04-03T06:43:54.021Z,73.57
2019-04-03T06:44:48.471Z,73.28
2019-04-03T06:45:48.330Z,73.19
2019-04-03T06:46:48.189Z,73.13
2019-04-03T06:47:48.183Z,72.94
2019-04-03T06:48:48.385Z,72.65
2019-04-03T06:49:48.169Z,72.37
2019-04-03T06:50:48.298Z,71.7
2019-04-03T06:51:49.313Z,71.22
2019-04-03T06:52:48.146Z,71.13
2019-04-03T06:53:48.335Z,71.03
2019-04-03T06:54:48.304Z,70.94
2019-04-03T06:55:47.876Z,70.94
2019-04-03T06:56:48.119Z,70.84
2019-04-03T06:57:48.389Z,70.75
2019-04-03T06:58:48.367Z,70.56
2019-04-03T06:59:50.626Z,70.27
2019-04-03T07:00:50.282Z,70.08
2019-04-03T07:01:48.223Z,69.99
2019-04-03T07:02:48.077Z,69.83
2019-04-03T07:03:48.289Z,69.83
2019-04-03T07:04:48.062Z,69.93
2019-04-03T07:05:47.810Z,70.12
2019-04-03T07:06:48.140Z,70.02
2019-04-03T07:07:48.039Z,69.64
2019-04-03T07:08:48.325Z,69.54
2019-04-03T07:09:50.369Z,69.64
2019-04-03T07:10:57.631Z,69.45
2019-04-03T07:11:48.022Z,69.17
2019-04-03T07:12:50.341Z,68.88
2019-04-03T07:13:48.354Z,68.59
2019-04-03T07:14:47.989Z,68.5
2019-04-03T07:15:47.984Z,68.21
2019-04-03T07:16:47.977Z,68.21
2019-04-03T07:17:47.983Z,68.12
2019-04-03T07:18:47.964Z,68.02
2019-04-03T07:19:47.954Z,67.83
2019-04-03T07:20:47.945Z,67.74
2019-04-03T07:21:47.945Z,67.45
2019-04-03T07:22:47.932Z,67.16
2019-04-03T07:23:48.156Z,66.97
2019-04-03T07:24:48.106Z,66.88
2019-04-03T07:25:47.913Z,66.78
2019-04-03T07:26:48.173Z,66.88
2019-04-03T07:27:47.897Z,67
2019-04-03T07:28:47.888Z,66.91
2019-04-03T07:29:51.721Z,67.1
2019-04-03T07:30:47.874Z,66.91
2019-04-03T07:31:48.244Z,66.44
2019-04-03T07:32:48.115Z,65.58
2019-04-03T07:33:47.857Z,65.29
2019-04-03T07:34:47.671Z,64.91
2019-04-03T07:35:48.095Z,64.62
2019-04-03T07:36:48.861Z,64.34
2019-04-03T07:37:48.709Z,64.15
2019-04-03T07:38:47.915Z,64.24
2019-04-03T07:39:49.915Z,63.96
2019-04-03T07:40:47.815Z,63.48
2019-04-03T07:41:47.796Z,62.81
2019-04-03T07:42:48.071Z,62.52
2019-04-03T07:43:47.895Z,62.46
2019-04-03T07:44:47.774Z,62.18
2019-04-03T07:45:47.970Z,61.7
2019-04-03T07:46:48.009Z,61.7
2019-04-03T07:47:48.078Z,61.51
2019-04-03T07:48:47.823Z,60.65
2019-04-03T07:49:47.741Z,60.46
2019-04-03T07:50:47.733Z,60.55
2019-04-03T07:51:47.724Z,60.46
2019-04-03T07:52:50.284Z,60.17
2019-04-03T07:53:48.814Z,60.46
2019-04-03T07:54:47.702Z,60.36
2019-04-03T07:55:47.718Z,60.17
2019-04-03T07:56:47.756Z,59.79
2019-04-03T07:57:47.936Z,59.79
2019-04-03T07:58:47.985Z,60.08
2019-04-03T07:59:47.669Z,60.36
2019-04-03T08:00:48.251Z,60.55
2019-04-03T08:01:48.100Z,60.36
2019-04-03T08:02:51.223Z,59.99
2019-04-03T08:03:47.643Z,60.17
2019-04-03T08:04:47.634Z,59.99
2019-04-03T08:05:47.628Z,60.27
2019-04-03T08:06:47.619Z,60.36
2019-04-03T08:07:47.612Z,60.36
2019-04-03T08:08:50.161Z,59.99
2019-04-03T08:09:47.599Z,59.89
2019-04-03T08:10:47.594Z,59.7
2019-04-03T08:11:47.858Z,59.41
2019-04-03T08:12:47.582Z,58.94
2019-04-03T08:13:47.829Z,58.58
2019-04-03T08:14:47.782Z,58.55
2019-04-03T08:15:47.900Z,58.75
2019-04-03T08:16:50.005Z,58.75
2019-04-03T08:17:47.789Z,58.84
2019-04-03T08:18:47.533Z,58.94
2019-04-03T08:19:48.430Z,59.03
2019-04-03T08:20:47.555Z,59.12
2019-04-03T08:21:47.513Z,59.22
2019-04-03T08:22:47.505Z,59.12
2019-04-03T08:23:47.506Z,59.12
2019-04-03T08:24:47.585Z,59.22
2019-04-03T08:25:53.709Z,59.22
2019-04-03T08:26:48.910Z,59.44
2019-04-03T08:27:47.471Z,59.25
2019-04-03T08:28:47.464Z,58.87
2019-04-03T08:29:47.558Z,58.48
2019-04-03T08:30:47.458Z,58.2
2019-04-03T08:31:50.733Z,58.11
2019-04-03T08:32:50.430Z,57.82
2019-04-03T08:33:47.530Z,57.53
2019-04-03T08:34:47.442Z,57.06
2019-04-03T08:35:47.695Z,57.24
2019-04-03T08:36:47.527Z,57.53
2019-04-03T08:37:47.402Z,57.82
2019-04-03T08:38:47.984Z,58.01
2019-04-03T08:39:49.053Z,57.82
2019-04-03T08:40:47.382Z,57.63
2019-04-03T08:41:47.817Z,57.53
2019-04-03T08:42:47.623Z,57.06
2019-04-03T08:43:47.359Z,56.32
2019-04-03T08:44:47.354Z,56.13
2019-04-03T08:45:47.415Z,55.94
2019-04-03T08:46:47.663Z,55.55
2019-04-03T08:47:49.038Z,54.99
2019-04-03T08:48:47.658Z,54.99
2019-04-03T08:49:47.587Z,54.89
2019-04-03T08:50:47.313Z,55.18
2019-04-03T08:51:47.303Z,55.08
2019-04-03T08:52:47.297Z,55.08
2019-04-03T08:53:47.291Z,54.99
2019-04-03T08:54:47.282Z,54.79
2019-04-03T08:55:48.831Z,54.32
2019-04-03T08:56:48.611Z,53.65
2019-04-03T08:57:51.309Z,53.27
2019-04-03T08:58:48.185Z,52.69
2019-04-03T08:59:47.472Z,52.79
2019-04-03T09:00:47.516Z,52.88
2019-04-03T09:01:47.233Z,52.69
2019-04-03T09:02:47.228Z,52.72
2019-04-03T09:03:48.791Z,52.81
2019-04-03T09:04:50.251Z,53
2019-04-03T09:05:50.091Z,52.91
2019-04-03T09:06:47.474Z,52.53
2019-04-03T09:07:47.536Z,52.15
2019-04-03T09:08:47.187Z,51.95
2019-04-03T09:09:47.211Z,52.34
2019-04-03T09:10:47.175Z,52.62
2019-04-03T09:11:46.917Z,52.62
2019-04-03T09:12:47.156Z,52.81
2019-04-03T09:13:47.359Z,52.81
2019-04-03T09:14:47.370Z,52.91
2019-04-03T09:15:47.136Z,52.91
2019-04-03T09:16:47.128Z,52.81
2019-04-03T09:17:47.121Z,52.53
2019-04-03T09:18:47.123Z,52.15
2019-04-03T09:19:47.260Z,52.15
2019-04-03T09:20:47.109Z,52.05
2019-04-03T09:21:51.041Z,52.15
2019-04-03T09:22:47.087Z,52.43
2019-04-03T09:23:47.080Z,52.62
2019-04-03T09:24:47.072Z,52.62
2019-04-03T09:25:47.374Z,52.81
2019-04-03T09:26:47.059Z,52.15
2019-04-03T09:27:47.052Z,52.53
2019-04-03T09:28:47.282Z,52.15
2019-04-03T09:29:48.354Z,52.05
2019-04-03T09:30:49.671Z,51.95
2019-04-03T09:31:47.389Z,52.15
2019-04-03T09:32:47.020Z,51.95
2019-04-03T09:33:47.424Z,52.15
2019-04-03T09:34:47.068Z,51.7
2019-04-03T09:35:46.998Z,51.38
2019-04-03T09:36:46.741Z,51.67
2019-04-03T09:37:48.794Z,51.67
2019-04-03T09:38:47.207Z,51.67
2019-04-03T09:39:48.383Z,51.76
2019-04-03T09:40:50.038Z,51.86
2019-04-03T09:41:46.958Z,51.98
2019-04-03T09:42:46.951Z,51.89
2019-04-03T09:43:46.945Z,51.41
2019-04-03T09:44:46.937Z,50.76
2019-04-03T09:45:47.070Z,50.29
2019-04-03T09:46:47.714Z,49.62
2019-04-03T09:47:46.991Z,49.43
2019-04-03T09:48:47.025Z,49.33
2019-04-03T09:49:47.343Z,49.16
2019-04-03T09:50:49.158Z,48.39
2019-04-03T09:51:47.125Z,48.11
2019-04-03T09:52:53.983Z,48.11
2019-04-03T09:53:46.924Z,48.11
2019-04-03T09:54:46.869Z,48.02
2019-04-03T09:55:46.867Z,47.47
2019-04-03T09:57:04.548Z,47.37
2019-04-03T09:57:46.856Z,47.37
2019-04-03T09:58:47.087Z,47.47
2019-04-03T09:59:46.840Z,47.47
2019-04-03T10:00:46.837Z,47.37
2019-04-03T10:01:49.382Z,47.27
2019-04-03T10:02:46.816Z,47.18
2019-04-03T10:03:47.096Z,47.18
2019-04-03T10:04:46.804Z,47.27
2019-04-03T10:05:46.798Z,46.51
2019-04-03T10:06:46.541Z,46.61
2019-04-03T10:07:47.062Z,47.06
2019-04-03T10:08:47.114Z,47.53
2019-04-03T10:09:47.357Z,47.82
2019-04-03T10:10:49.163Z,48.02
2019-04-03T10:11:46.860Z,48.21
2019-04-03T10:12:53.054Z,48.21
2019-04-03T10:13:46.746Z,48.02
2019-04-03T10:14:46.739Z,47.82
2019-04-03T10:15:47.027Z,47.63
2019-04-03T10:16:46.726Z,47.73
2019-04-03T10:17:46.719Z,47.73
2019-04-03T10:18:47.176Z,47.73
2019-04-03T10:19:48.747Z,47.63
2019-04-03T10:20:48.568Z,47.53
2019-04-03T10:21:46.700Z,47.53
2019-04-03T10:22:46.688Z,47.63
2019-04-03T10:23:46.926Z,47.53
2019-04-03T10:24:46.682Z,47.44
2019-04-03T10:25:46.900Z,47.44
2019-04-03T10:26:47.050Z,47.47
2019-04-03T10:27:47.067Z,47.18
2019-04-03T10:28:49.407Z,47.08
2019-04-03T10:29:49.106Z,47.18
2019-04-03T10:30:46.640Z,46.89
2019-04-03T10:31:46.382Z,46.8
2019-04-03T10:32:46.843Z,46.61
2019-04-03T10:33:46.620Z,46.51
2019-04-03T10:34:47.009Z,46.12
2019-04-03T10:35:49.641Z,46.03
2019-04-03T10:36:46.959Z,46.31
2019-04-03T10:37:49.346Z,46.51
2019-04-03T10:38:47.001Z,46.25
2019-04-03T10:39:47.335Z,45.84
2019-04-03T10:40:46.833Z,45.65
2019-04-03T10:41:46.572Z,45.45
2019-04-03T10:42:46.566Z,45.74
2019-04-03T10:43:46.674Z,45.84
2019-04-03T10:44:46.739Z,46.22
2019-04-03T10:45:46.549Z,46.39
2019-04-03T10:46:47.884Z,46.51
2019-04-03T10:47:47.311Z,46.61
2019-04-03T10:48:46.523Z,46.12
2019-04-03T10:49:46.518Z,45.76
2019-04-03T10:50:46.519Z,45.76
2019-04-03T10:51:46.505Z,45.96
2019-04-03T10:52:50.048Z,45.89
2019-04-03T10:53:46.588Z,45.21
2019-04-03T10:54:46.792Z,44.83
2019-04-03T10:55:46.539Z,44.73
2019-04-03T10:56:46.339Z,44.26
2019-04-03T10:57:46.468Z,43.97
2019-04-03T10:58:49.413Z,43.01
2019-04-03T10:59:47.884Z,42.82
2019-04-03T11:00:46.748Z,42.44
2019-04-03T11:01:46.193Z,42.05
2019-04-03T11:02:46.462Z,41.96
2019-04-03T11:03:46.431Z,42.14
2019-04-03T11:04:46.446Z,42.14
2019-04-03T11:05:46.419Z,42.24
2019-04-03T11:06:46.768Z,42.53
2019-04-03T11:07:46.416Z,42.72
2019-04-03T11:08:46.577Z,42.82
2019-04-03T11:09:46.642Z,42.24
2019-04-03T11:10:46.627Z,42.24
2019-04-03T11:11:46.560Z,42.14
2019-04-03T11:12:46.683Z,42.24
2019-04-03T11:13:46.369Z,42.05
2019-04-03T11:14:46.364Z,42.14
2019-04-03T11:15:47.468Z,42.05
2019-04-03T11:16:49.442Z,41.6
2019-04-03T11:17:48.377Z,41.78
2019-04-03T11:18:57.403Z,41.6
2019-04-03T11:19:47.338Z,41.31
2019-04-03T11:20:46.608Z,41.21
2019-04-03T11:21:47.445Z,41.11
2019-04-03T11:22:48.206Z,41.11
2019-04-03T11:23:48.036Z,40.83
2019-04-03T11:24:46.511Z,40.92
2019-04-03T11:25:48.416Z,41.69
2019-04-03T11:26:46.482Z,42.24
2019-04-03T11:27:48.510Z,42.14
2019-04-03T11:28:46.275Z,41.4
2019-04-03T11:29:46.320Z,41.09
2019-04-03T11:30:46.595Z,41
2019-04-03T11:31:46.412Z,40.81
2019-04-03T11:32:46.253Z,40.42
2019-04-03T11:33:50.359Z,40.42
2019-04-03T11:34:48.857Z,40.61
2019-04-03T11:35:46.232Z,40.81
2019-04-03T11:36:46.264Z,41.31
2019-04-03T11:37:46.230Z,41.21
2019-04-03T11:38:46.214Z,41.02
2019-04-03T11:40:00.695Z,40.84
2019-04-03T11:40:47.740Z,40.08
2019-04-03T11:41:45.948Z,39.12
2019-04-03T11:42:46.195Z,39.03
2019-04-03T11:43:46.622Z,38.45
2019-04-03T11:44:46.183Z,38.45
2019-04-03T11:45:46.464Z,38.64
2019-04-03T11:46:46.167Z,38.85
2019-04-03T11:47:48.607Z,38.56
2019-04-03T11:48:48.345Z,38.47
2019-04-03T11:49:46.150Z,38.37
2019-04-03T11:50:46.448Z,37.99
2019-04-03T11:51:46.518Z,37.8
2019-04-03T11:52:46.533Z,37.99
2019-04-03T11:53:48.284Z,37.89
2019-04-03T11:54:46.287Z,37.8
2019-04-03T11:55:46.114Z,37.34
2019-04-03T11:56:48.198Z,36.47
2019-04-03T11:57:48.184Z,36.47
2019-04-03T11:58:46.755Z,36.38
2019-04-03T11:59:49.113Z,36.18
2019-04-03T12:00:46.420Z,35.8
2019-04-03T12:01:45.824Z,35.32
2019-04-03T12:02:47.156Z,35.42
2019-04-03T12:03:46.311Z,35.69
2019-04-03T12:04:47.033Z,35.8
2019-04-03T12:05:47.462Z,35.99
2019-04-03T12:06:45.802Z,35.89
2019-04-03T12:07:46.041Z,35.99
2019-04-03T12:08:48.083Z,35.51
2019-04-03T12:09:46.278Z,35.22
2019-04-03T12:10:46.258Z,34.94
2019-04-03T12:11:46.141Z,34.55
2019-04-03T12:12:46.195Z,34.94
2019-04-03T12:13:48.453Z,35.32
2019-04-03T12:14:46.918Z,35.34
2019-04-03T12:15:45.994Z,35.24
2019-04-03T12:16:46.091Z,34.76
2019-04-03T12:17:45.983Z,34.19
2019-04-03T12:18:46.148Z,34.65
2019-04-03T12:19:48.785Z,34.94
2019-04-03T12:20:49.448Z,35.22
2019-04-03T12:21:45.709Z,35.51
2019-04-03T12:22:46.688Z,35.89
2019-04-03T12:23:45.947Z,36.09
2019-04-03T12:24:46.297Z,36.18
2019-04-03T12:25:46.203Z,35.89
2019-04-03T12:26:47.137Z,35.42
2019-04-03T12:27:48.878Z,35.51
2019-04-03T12:28:46.875Z,34.84
2019-04-03T12:29:45.914Z,34.36
2019-04-03T12:30:46.106Z,35.13
2019-04-03T12:31:46.150Z,35.78
2019-04-03T12:32:51.362Z,35.88
2019-04-03T12:34:03.275Z,35.32
2019-04-03T12:34:46.473Z,35.22
2019-04-03T12:35:46.215Z,35.42
2019-04-03T12:36:48.976Z,35.03
2019-04-03T12:37:46.172Z,34.17
2019-04-03T12:38:45.862Z,33.98
2019-04-03T12:39:46.219Z,34.17
2019-04-03T12:40:45.896Z,34.55
2019-04-03T12:41:46.513Z,34.36
2019-04-03T12:42:45.840Z,34.27
2019-04-03T12:43:46.126Z,34.55
2019-04-03T12:44:45.837Z,34.75
2019-04-03T12:45:46.100Z,34.84
2019-04-03T12:46:45.942Z,34.75
2019-04-03T12:47:47.208Z,33.98
2019-04-03T12:48:45.805Z,32.92
2019-04-03T12:49:45.806Z,32.64
2019-04-03T12:50:45.796Z,32.82
2019-04-03T12:51:45.786Z,32.82
2019-04-03T12:52:47.321Z,32.9
2019-04-03T12:53:46.297Z,33.39
2019-04-03T12:54:47.347Z,33.48